Aviation Digital Data Service (ADDS)

Output produced by METARs form (2338 UTC 20 January 2019)
found at http://www.aviationweather.gov/metar/data/
 
METAR text: YSNF 202300Z 15008KT 100V160 9999 FEW020 25/19 Q1017 RF00.0/000.0
Conditions at: YSNF (NORFOLK ISLAND A, AU) observed 2300 UTC 20 January 2019
Temperature: 25.0°C (77°F)
Dewpoint: 19.0°C (66°F) [RH = 69%]
Pressure (altimeter): 30.03 inches Hg (1017.0 mb)
Winds: from the SSE (150 degrees) at 9 MPH (8 knots; 4.1 m/s)
Visibility: 6 or more miles (10+ km)
Ceiling: at least 12,000 feet AGL
Clouds: few clouds at 2000 feet AGL
Weather: no significant weather observed at this time

METAR text: YSNF 202230Z 17008KT 9999 FEW020 24/19 Q1017
Conditions at: YSNF (NORFOLK ISLAND A, AU) observed 2230 UTC 20 January 2019
Temperature: 24.0°C (75°F)
Dewpoint: 19.0°C (66°F) [RH = 74%]
Pressure (altimeter): 30.03 inches Hg (1017.0 mb)
Winds: from the S (170 degrees) at 9 MPH (8 knots; 4.1 m/s)
Visibility: 6 or more miles (10+ km)
Ceiling: at least 12,000 feet AGL
Clouds: few clouds at 2000 feet AGL
Weather: no significant weather observed at this time

METAR text: YSNF 202200Z 13008KT 9999 FEW021 25/20 Q1017
Conditions at: YSNF (NORFOLK ISLAND A, AU) observed 2200 UTC 20 January 2019
Temperature: 25.0°C (77°F)
Dewpoint: 20.0°C (68°F) [RH = 74%]
Pressure (altimeter): 30.03 inches Hg (1017.0 mb)
Winds: from the SE (130 degrees) at 9 MPH (8 knots; 4.1 m/s)
Visibility: 6 or more miles (10+ km)
Ceiling: at least 12,000 feet AGL
Clouds: few clouds at 2100 feet AGL
Weather: no significant weather observed at this time

METAR text: YSNF 202130Z 14007KT CAVOK 24/19 Q1017
Conditions at: YSNF (NORFOLK ISLAND A, AU) observed 2130 UTC 20 January 2019
Temperature: 24.0°C (75°F)
Dewpoint: 19.0°C (66°F) [RH = 74%]
Pressure (altimeter): 30.03 inches Hg (1017.0 mb)
Winds: from the SE (140 degrees) at 8 MPH (7 knots; 3.6 m/s)
Visibility: 6 or more miles (10+ km)
Ceiling: ceiling and visibility are OK
Clouds: unknown
Weather: no significant weather observed at this time

METAR text: YSNF 202100Z AUTO 14006KT 110V180 9999 // BKN013 OVC039 24/20 Q1017
Conditions at: YSNF (NORFOLK ISLAND A, AU) observed 2100 UTC 20 January 2019
Temperature: 24.0°C (75°F)
Dewpoint: 20.0°C (68°F) [RH = 78%]
Pressure (altimeter): 30.03 inches Hg (1017.0 mb)
Winds: from the SE (140 degrees) at 7 MPH (6 knots; 3.1 m/s)
Visibility: 6 or more miles (10+ km)
Ceiling: 1300 feet AGL
Clouds: broken clouds at 1300 feet AGL
overcast cloud deck at 3900 feet AGL
Weather: no significant weather observed at this time

METAR text: YSNF 202030Z AUTO 13007KT 9999 // BKN013 OVC039 23/19 Q1017
Conditions at: YSNF (NORFOLK ISLAND A, AU) observed 2030 UTC 20 January 2019
Temperature: 23.0°C (73°F)
Dewpoint: 19.0°C (66°F) [RH = 78%]
Pressure (altimeter): 30.03 inches Hg (1017.0 mb)
Winds: from the SE (130 degrees) at 8 MPH (7 knots; 3.6 m/s)
Visibility: 6 or more miles (10+ km)
Ceiling: 1300 feet AGL
Clouds: broken clouds at 1300 feet AGL
overcast cloud deck at 3900 feet AGL
Weather: no significant weather observed at this time

METAR text: YSNF 202000Z AUTO 13006KT 9999 // BKN013 OVC039 22/19 Q1017
Conditions at: YSNF (NORFOLK ISLAND A, AU) observed 2000 UTC 20 January 2019
Temperature: 22.0°C (72°F)
Dewpoint: 19.0°C (66°F) [RH = 83%]
Pressure (altimeter): 30.03 inches Hg (1017.0 mb)
Winds: from the SE (130 degrees) at 7 MPH (6 knots; 3.1 m/s)
Visibility: 6 or more miles (10+ km)
Ceiling: 1300 feet AGL
Clouds: broken clouds at 1300 feet AGL
overcast cloud deck at 3900 feet AGL
Weather: no significant weather observed at this time

METAR text: YSNF 201954Z AUTO 14005KT 9999 // BKN013 OVC039 22/19 Q1017
Conditions at: YSNF (NORFOLK ISLAND A, AU) observed 1954 UTC 20 January 2019
Temperature: 22.0°C (72°F)
Dewpoint: 19.0°C (66°F) [RH = 83%]
Pressure (altimeter): 30.03 inches Hg (1017.0 mb)
Winds: from the SE (140 degrees) at 6 MPH (5 knots; 2.6 m/s)
Visibility: 6 or more miles (10+ km)
Ceiling: 1300 feet AGL
Clouds: broken clouds at 1300 feet AGL
overcast cloud deck at 3900 feet AGL
Weather: no significant weather observed at this time

METAR text: YSNF 201930Z AUTO 14006KT 9999 // OVC039 22/20 Q1017 RF00.0/000.0
Conditions at: YSNF (NORFOLK ISLAND A, AU) observed 1930 UTC 20 January 2019
Temperature: 22.0°C (72°F)
Dewpoint: 20.0°C (68°F) [RH = 88%]
Pressure (altimeter): 30.03 inches Hg (1017.0 mb)
Winds: from the SE (140 degrees) at 7 MPH (6 knots; 3.1 m/s)
Visibility: 6 or more miles (10+ km)
Ceiling: 3900 feet AGL
Clouds: overcast cloud deck at 3900 feet AGL
Weather: no significant weather observed at this time

METAR text: YSNF 201900Z AUTO 14004KT 9999 // SCT011 OVC039 22/20 Q1017
Conditions at: YSNF (NORFOLK ISLAND A, AU) observed 1900 UTC 20 January 2019
Temperature: 22.0°C (72°F)
Dewpoint: 20.0°C (68°F) [RH = 88%]
Pressure (altimeter): 30.03 inches Hg (1017.0 mb)
Winds: from the SE (140 degrees) at 5 MPH (4 knots; 2.1 m/s)
Visibility: 6 or more miles (10+ km)
Ceiling: 3900 feet AGL
Clouds: scattered clouds at 1100 feet AGL
overcast cloud deck at 3900 feet AGL
Weather: no significant weather observed at this time

METAR text: YSNF 201830Z AUTO 09001KT 9999 // SCT035 20/19 Q1017 RF00.0/000.0
Conditions at: YSNF (NORFOLK ISLAND A, AU) observed 1830 UTC 20 January 2019
Temperature: 20.0°C (68°F)
Dewpoint: 19.0°C (66°F) [RH = 94%]
Pressure (altimeter): 30.03 inches Hg (1017.0 mb)
Winds: from the E (90 degrees) at 1 MPH (1 knots; 0.5 m/s)
Visibility: 6 or more miles (10+ km)
Ceiling: at least 12,000 feet AGL
Clouds: scattered clouds at 3500 feet AGL
Weather: no significant weather observed at this time

METAR text: YSNF 201800Z AUTO 11004KT 9999 // SCT029 OVC035 21/19 Q1017
Conditions at: YSNF (NORFOLK ISLAND A, AU) observed 1800 UTC 20 January 2019
Temperature: 21.0°C (70°F)
Dewpoint: 19.0°C (66°F) [RH = 88%]
Pressure (altimeter): 30.03 inches Hg (1017.0 mb)
Winds: from the ESE (110 degrees) at 5 MPH (4 knots; 2.1 m/s)
Visibility: 6 or more miles (10+ km)
Ceiling: 3500 feet AGL
Clouds: scattered clouds at 2900 feet AGL
overcast cloud deck at 3500 feet AGL
Weather: no significant weather observed at this time

METAR text: YSNF 201730Z AUTO 09004KT 9999 // OVC035 20/19 Q1016 RF00.0/000.0
Conditions at: YSNF (NORFOLK ISLAND A, AU) observed 1730 UTC 20 January 2019
Temperature: 20.0°C (68°F)
Dewpoint: 19.0°C (66°F) [RH = 94%]
Pressure (altimeter): 30.00 inches Hg (1016.0 mb)
Winds: from the E (90 degrees) at 5 MPH (4 knots; 2.1 m/s)
Visibility: 6 or more miles (10+ km)
Ceiling: 3500 feet AGL
Clouds: overcast cloud deck at 3500 feet AGL
Weather: no significant weather observed at this time

METAR text: YSNF 201700Z AUTO 08004KT 9999 // SCT011 20/19 Q1016
Conditions at: YSNF (NORFOLK ISLAND A, AU) observed 1700 UTC 20 January 2019
Temperature: 20.0°C (68°F)
Dewpoint: 19.0°C (66°F) [RH = 94%]
Pressure (altimeter): 30.00 inches Hg (1016.0 mb)
Winds: from the E (80 degrees) at 5 MPH (4 knots; 2.1 m/s)
Visibility: 6 or more miles (10+ km)
Ceiling: at least 12,000 feet AGL
Clouds: scattered clouds at 1100 feet AGL
Weather: no significant weather observed at this time

METAR text: YSNF 201630Z AUTO 08004KT 9999 // SCT012 20/19 Q1016 RF00.0/000.0
Conditions at: YSNF (NORFOLK ISLAND A, AU) observed 1630 UTC 20 January 2019
Temperature: 20.0°C (68°F)
Dewpoint: 19.0°C (66°F) [RH = 94%]
Pressure (altimeter): 30.00 inches Hg (1016.0 mb)
Winds: from the E (80 degrees) at 5 MPH (4 knots; 2.1 m/s)
Visibility: 6 or more miles (10+ km)
Ceiling: at least 12,000 feet AGL
Clouds: scattered clouds at 1200 feet AGL
Weather: no significant weather observed at this time

METAR text: YSNF 201600Z AUTO 09003KT 9999 // SCT012 21/19 Q1016 RF00.0/000.0
Conditions at: YSNF (NORFOLK ISLAND A, AU) observed 1600 UTC 20 January 2019
Temperature: 21.0°C (70°F)
Dewpoint: 19.0°C (66°F) [RH = 88%]
Pressure (altimeter): 30.00 inches Hg (1016.0 mb)
Winds: from the E (90 degrees) at 3 MPH (3 knots; 1.5 m/s)
Visibility: 6 or more miles (10+ km)
Ceiling: at least 12,000 feet AGL
Clouds: scattered clouds at 1200 feet AGL
Weather: no significant weather observed at this time

METAR text: YSNF 201530Z AUTO 12004KT 9999 // SCT034 21/19 Q1016 RF00.0/000.0
Conditions at: YSNF (NORFOLK ISLAND A, AU) observed 1530 UTC 20 January 2019
Temperature: 21.0°C (70°F)
Dewpoint: 19.0°C (66°F) [RH = 88%]
Pressure (altimeter): 30.00 inches Hg (1016.0 mb)
Winds: from the ESE (120 degrees) at 5 MPH (4 knots; 2.1 m/s)
Visibility: 6 or more miles (10+ km)
Ceiling: at least 12,000 feet AGL
Clouds: scattered clouds at 3400 feet AGL
Weather: no significant weather observed at this time

METAR text: YSNF 201500Z AUTO 11005KT 9999 // BKN034 21/19 Q1017
Conditions at: YSNF (NORFOLK ISLAND A, AU) observed 1500 UTC 20 January 2019
Temperature: 21.0°C (70°F)
Dewpoint: 19.0°C (66°F) [RH = 88%]
Pressure (altimeter): 30.03 inches Hg (1017.0 mb)
Winds: from the ESE (110 degrees) at 6 MPH (5 knots; 2.6 m/s)
Visibility: 6 or more miles (10+ km)
Ceiling: 3400 feet AGL
Clouds: broken clouds at 3400 feet AGL
Weather: no significant weather observed at this time

METAR text: YSNF 201430Z AUTO 12005KT 9999 // SCT014 SCT021 BKN034 21/19 Q1017
Conditions at: YSNF (NORFOLK ISLAND A, AU) observed 1430 UTC 20 January 2019
Temperature: 21.0°C (70°F)
Dewpoint: 19.0°C (66°F) [RH = 88%]
Pressure (altimeter): 30.03 inches Hg (1017.0 mb)
Winds: from the ESE (120 degrees) at 6 MPH (5 knots; 2.6 m/s)
Visibility: 6 or more miles (10+ km)
Ceiling: 3400 feet AGL
Clouds: scattered clouds at 1400 feet AGL
scattered clouds at 2100 feet AGL
broken clouds at 3400 feet AGL
Weather: no significant weather observed at this time

METAR text: YSNF 201400Z AUTO 11004KT 9999 // SCT016 SCT027 21/19 Q1017
Conditions at: YSNF (NORFOLK ISLAND A, AU) observed 1400 UTC 20 January 2019
Temperature: 21.0°C (70°F)
Dewpoint: 19.0°C (66°F) [RH = 88%]
Pressure (altimeter): 30.03 inches Hg (1017.0 mb)
Winds: from the ESE (110 degrees) at 5 MPH (4 knots; 2.1 m/s)
Visibility: 6 or more miles (10+ km)
Ceiling: at least 12,000 feet AGL
Clouds: scattered clouds at 1600 feet AGL
scattered clouds at 2700 feet AGL
Weather: no significant weather observed at this time

METAR text: YSNF 201330Z AUTO 12005KT 9999 // SCT016 SCT022 BKN029 22/19 Q1017
Conditions at: YSNF (NORFOLK ISLAND A, AU) observed 1330 UTC 20 January 2019
Temperature: 22.0°C (72°F)
Dewpoint: 19.0°C (66°F) [RH = 83%]
Pressure (altimeter): 30.03 inches Hg (1017.0 mb)
Winds: from the ESE (120 degrees) at 6 MPH (5 knots; 2.6 m/s)
Visibility: 6 or more miles (10+ km)
Ceiling: 2900 feet AGL
Clouds: scattered clouds at 1600 feet AGL
scattered clouds at 2200 feet AGL
broken clouds at 2900 feet AGL
Weather: no significant weather observed at this time

METAR text: YSNF 201300Z AUTO 11005KT 9999 // SCT015 SCT023 BKN028 22/19 Q1017
Conditions at: YSNF (NORFOLK ISLAND A, AU) observed 1300 UTC 20 January 2019
Temperature: 22.0°C (72°F)
Dewpoint: 19.0°C (66°F) [RH = 83%]
Pressure (altimeter): 30.03 inches Hg (1017.0 mb)
Winds: from the ESE (110 degrees) at 6 MPH (5 knots; 2.6 m/s)
Visibility: 6 or more miles (10+ km)
Ceiling: 2800 feet AGL
Clouds: scattered clouds at 1500 feet AGL
scattered clouds at 2300 feet AGL
broken clouds at 2800 feet AGL
Weather: no significant weather observed at this time

METAR text: YSNF 201230Z AUTO 10005KT 9999 // SCT015 BKN022 22/19 Q1018
Conditions at: YSNF (NORFOLK ISLAND A, AU) observed 1230 UTC 20 January 2019
Temperature: 22.0°C (72°F)
Dewpoint: 19.0°C (66°F) [RH = 83%]
Pressure (altimeter): 30.06 inches Hg (1018.0 mb)
Winds: from the E (100 degrees) at 6 MPH (5 knots; 2.6 m/s)
Visibility: 6 or more miles (10+ km)
Ceiling: 2200 feet AGL
Clouds: scattered clouds at 1500 feet AGL
broken clouds at 2200 feet AGL
Weather: no significant weather observed at this time

METAR text: YSNF 201200Z AUTO 10005KT 9999 // SCT016 SCT022 SCT026 21/19 Q1018
Conditions at: YSNF (NORFOLK ISLAND A, AU) observed 1200 UTC 20 January 2019
Temperature: 21.0°C (70°F)
Dewpoint: 19.0°C (66°F) [RH = 88%]
Pressure (altimeter): 30.06 inches Hg (1018.0 mb)
Winds: from the E (100 degrees) at 6 MPH (5 knots; 2.6 m/s)
Visibility: 6 or more miles (10+ km)
Ceiling: at least 12,000 feet AGL
Clouds: scattered clouds at 1600 feet AGL
scattered clouds at 2200 feet AGL
scattered clouds at 2600 feet AGL
Weather: no significant weather observed at this time

METAR text: YSNF 201130Z AUTO 11005KT 9999 // SCT018 SCT024 22/19 Q1018
Conditions at: YSNF (NORFOLK ISLAND A, AU) observed 1130 UTC 20 January 2019
Temperature: 22.0°C (72°F)
Dewpoint: 19.0°C (66°F) [RH = 83%]
Pressure (altimeter): 30.06 inches Hg (1018.0 mb)
Winds: from the ESE (110 degrees) at 6 MPH (5 knots; 2.6 m/s)
Visibility: 6 or more miles (10+ km)
Ceiling: at least 12,000 feet AGL
Clouds: scattered clouds at 1800 feet AGL
scattered clouds at 2400 feet AGL
Weather: no significant weather observed at this time

METAR text: YSNF 201100Z AUTO 11005KT 9999 // SCT020 21/18 Q1018 RF00.0/000.0
Conditions at: YSNF (NORFOLK ISLAND A, AU) observed 1100 UTC 20 January 2019
Temperature: 21.0°C (70°F)
Dewpoint: 18.0°C (64°F) [RH = 83%]
Pressure (altimeter): 30.06 inches Hg (1018.0 mb)
Winds: from the ESE (110 degrees) at 6 MPH (5 knots; 2.6 m/s)
Visibility: 6 or more miles (10+ km)
Ceiling: at least 12,000 feet AGL
Clouds: scattered clouds at 2000 feet AGL
Weather: no significant weather observed at this time

METAR text: YSNF 201030Z AUTO 10005KT 9999 // SCT020 22/18 Q1018 RF00.0/000.0
Conditions at: YSNF (NORFOLK ISLAND A, AU) observed 1030 UTC 20 January 2019
Temperature: 22.0°C (72°F)
Dewpoint: 18.0°C (64°F) [RH = 78%]
Pressure (altimeter): 30.06 inches Hg (1018.0 mb)
Winds: from the E (100 degrees) at 6 MPH (5 knots; 2.6 m/s)
Visibility: 6 or more miles (10+ km)
Ceiling: at least 12,000 feet AGL
Clouds: scattered clouds at 2000 feet AGL
Weather: no significant weather observed at this time

METAR text: YSNF 201000Z AUTO 10005KT 9999 // SCT020 21/18 Q1018 RF00.0/000.0
Conditions at: YSNF (NORFOLK ISLAND A, AU) observed 1000 UTC 20 January 2019
Temperature: 21.0°C (70°F)
Dewpoint: 18.0°C (64°F) [RH = 83%]
Pressure (altimeter): 30.06 inches Hg (1018.0 mb)
Winds: from the E (100 degrees) at 6 MPH (5 knots; 2.6 m/s)
Visibility: 6 or more miles (10+ km)
Ceiling: at least 12,000 feet AGL
Clouds: scattered clouds at 2000 feet AGL
Weather: no significant weather observed at this time

METAR text: YSNF 200930Z AUTO 11005KT 9999 // NCD 21/18 Q1018 RF00.0/000.0
Conditions at: YSNF (NORFOLK ISLAND A, AU) observed 0930 UTC 20 January 2019
Temperature: 21.0°C (70°F)
Dewpoint: 18.0°C (64°F) [RH = 83%]
Pressure (altimeter): 30.06 inches Hg (1018.0 mb)
Winds: from the ESE (110 degrees) at 6 MPH (5 knots; 2.6 m/s)
Visibility: 6 or more miles (10+ km)
Ceiling: at least 12,000 feet AGL
Clouds: sky clear below 12,000 feet AGL
Weather: no significant weather observed at this time

METAR text: YSNF 200900Z AUTO 11005KT 9999 // NCD 22/18 Q1018
Conditions at: YSNF (NORFOLK ISLAND A, AU) observed 0900 UTC 20 January 2019
Temperature: 22.0°C (72°F)
Dewpoint: 18.0°C (64°F) [RH = 78%]
Pressure (altimeter): 30.06 inches Hg (1018.0 mb)
Winds: from the ESE (110 degrees) at 6 MPH (5 knots; 2.6 m/s)
Visibility: 6 or more miles (10+ km)
Ceiling: at least 12,000 feet AGL
Clouds: sky clear below 12,000 feet AGL
Weather: no significant weather observed at this time

METAR text: YSNF 200830Z AUTO 11005KT 9999 // NCD 22/18 Q1018 RF00.0/000.0
Conditions at: YSNF (NORFOLK ISLAND A, AU) observed 0830 UTC 20 January 2019
Temperature: 22.0°C (72°F)
Dewpoint: 18.0°C (64°F) [RH = 78%]
Pressure (altimeter): 30.06 inches Hg (1018.0 mb)
Winds: from the ESE (110 degrees) at 6 MPH (5 knots; 2.6 m/s)
Visibility: 6 or more miles (10+ km)
Ceiling: at least 12,000 feet AGL
Clouds: sky clear below 12,000 feet AGL
Weather: no significant weather observed at this time

METAR text: YSNF 200800Z AUTO 11005KT 9999 // NCD 22/18 Q1018
Conditions at: YSNF (NORFOLK ISLAND A, AU) observed 0800 UTC 20 January 2019
Temperature: 22.0°C (72°F)
Dewpoint: 18.0°C (64°F) [RH = 78%]
Pressure (altimeter): 30.06 inches Hg (1018.0 mb)
Winds: from the ESE (110 degrees) at 6 MPH (5 knots; 2.6 m/s)
Visibility: 6 or more miles (10+ km)
Ceiling: at least 12,000 feet AGL
Clouds: sky clear below 12,000 feet AGL
Weather: no significant weather observed at this time

METAR text: YSNF 200730Z AUTO 13007KT 9999 // SCT018 23/18 Q1017 RF00.0/000.0
Conditions at: YSNF (NORFOLK ISLAND A, AU) observed 0730 UTC 20 January 2019
Temperature: 23.0°C (73°F)
Dewpoint: 18.0°C (64°F) [RH = 73%]
Pressure (altimeter): 30.03 inches Hg (1017.0 mb)
Winds: from the SE (130 degrees) at 8 MPH (7 knots; 3.6 m/s)
Visibility: 6 or more miles (10+ km)
Ceiling: at least 12,000 feet AGL
Clouds: scattered clouds at 1800 feet AGL
Weather: no significant weather observed at this time

METAR text: YSNF 200700Z AUTO 13008KT 9999 // SCT018 23/18 Q1017 RF00.0/000.0
Conditions at: YSNF (NORFOLK ISLAND A, AU) observed 0700 UTC 20 January 2019
Temperature: 23.0°C (73°F)
Dewpoint: 18.0°C (64°F) [RH = 73%]
Pressure (altimeter): 30.03 inches Hg (1017.0 mb)
Winds: from the SE (130 degrees) at 9 MPH (8 knots; 4.1 m/s)
Visibility: 6 or more miles (10+ km)
Ceiling: at least 12,000 feet AGL
Clouds: scattered clouds at 1800 feet AGL
Weather: no significant weather observed at this time

METAR text: YSNF 200630Z AUTO 14009KT 9999 // NCD 23/18 Q1017 RF00.0/000.0
Conditions at: YSNF (NORFOLK ISLAND A, AU) observed 0630 UTC 20 January 2019
Temperature: 23.0°C (73°F)
Dewpoint: 18.0°C (64°F) [RH = 73%]
Pressure (altimeter): 30.03 inches Hg (1017.0 mb)
Winds: from the SE (140 degrees) at 10 MPH (9 knots; 4.6 m/s)
Visibility: 6 or more miles (10+ km)
Ceiling: at least 12,000 feet AGL
Clouds: sky clear below 12,000 feet AGL
Weather: no significant weather observed at this time

METAR text: YSNF 200600Z AUTO 14010KT 9999 // NCD 24/18 Q1017
Conditions at: YSNF (NORFOLK ISLAND A, AU) observed 0600 UTC 20 January 2019
Temperature: 24.0°C (75°F)
Dewpoint: 18.0°C (64°F) [RH = 69%]
Pressure (altimeter): 30.03 inches Hg (1017.0 mb)
Winds: from the SE (140 degrees) at 12 MPH (10 knots; 5.1 m/s)
Visibility: 6 or more miles (10+ km)
Ceiling: at least 12,000 feet AGL
Clouds: sky clear below 12,000 feet AGL
Weather: no significant weather observed at this time

METAR text: YSNF 200530Z AUTO 12010KT 9999 // NCD 24/18 Q1017 RF00.0/000.0
Conditions at: YSNF (NORFOLK ISLAND A, AU) observed 0530 UTC 20 January 2019
Temperature: 24.0°C (75°F)
Dewpoint: 18.0°C (64°F) [RH = 69%]
Pressure (altimeter): 30.03 inches Hg (1017.0 mb)
Winds: from the ESE (120 degrees) at 12 MPH (10 knots; 5.1 m/s)
Visibility: 6 or more miles (10+ km)
Ceiling: at least 12,000 feet AGL
Clouds: sky clear below 12,000 feet AGL
Weather: no significant weather observed at this time

METAR text: YSNF 200500Z AUTO 16011KT 9999 // NCD 25/18 Q1017 RF00.0/000.0
Conditions at: YSNF (NORFOLK ISLAND A, AU) observed 0500 UTC 20 January 2019
Temperature: 25.0°C (77°F)
Dewpoint: 18.0°C (64°F) [RH = 65%]
Pressure (altimeter): 30.03 inches Hg (1017.0 mb)
Winds: from the SSE (160 degrees) at 13 MPH (11 knots; 5.7 m/s)
Visibility: 6 or more miles (10+ km)
Ceiling: at least 12,000 feet AGL
Clouds: sky clear below 12,000 feet AGL
Weather: no significant weather observed at this time

METAR text: YSNF 200430Z AUTO 16011KT 9999 // NCD 24/18 Q1017 RF00.0/000.0
Conditions at: YSNF (NORFOLK ISLAND A, AU) observed 0430 UTC 20 January 2019
Temperature: 24.0°C (75°F)
Dewpoint: 18.0°C (64°F) [RH = 69%]
Pressure (altimeter): 30.03 inches Hg (1017.0 mb)
Winds: from the SSE (160 degrees) at 13 MPH (11 knots; 5.7 m/s)
Visibility: 6 or more miles (10+ km)
Ceiling: at least 12,000 feet AGL
Clouds: sky clear below 12,000 feet AGL
Weather: no significant weather observed at this time

METAR text: YSNF 200400Z AUTO 16011KT 9999 // SCT020 25/18 Q1017 RF00.0/000.0
Conditions at: YSNF (NORFOLK ISLAND A, AU) observed 0400 UTC 20 January 2019
Temperature: 25.0°C (77°F)
Dewpoint: 18.0°C (64°F) [RH = 65%]
Pressure (altimeter): 30.03 inches Hg (1017.0 mb)
Winds: from the SSE (160 degrees) at 13 MPH (11 knots; 5.7 m/s)
Visibility: 6 or more miles (10+ km)
Ceiling: at least 12,000 feet AGL
Clouds: scattered clouds at 2000 feet AGL
Weather: no significant weather observed at this time

METAR text: YSNF 200330Z AUTO 16011KT 110V180 9999 // SCT020 26/18 Q1018
Conditions at: YSNF (NORFOLK ISLAND A, AU) observed 0330 UTC 20 January 2019
Temperature: 26.0°C (79°F)
Dewpoint: 18.0°C (64°F) [RH = 61%]
Pressure (altimeter): 30.06 inches Hg (1018.0 mb)
Winds: from the SSE (160 degrees) at 13 MPH (11 knots; 5.7 m/s)
Visibility: 6 or more miles (10+ km)
Ceiling: at least 12,000 feet AGL
Clouds: scattered clouds at 2000 feet AGL
Weather: no significant weather observed at this time

METAR text: YSNF 200300Z AUTO 14011KT 9999 // SCT020 BKN034 25/19 Q1018
Conditions at: YSNF (NORFOLK ISLAND A, AU) observed 0300 UTC 20 January 2019
Temperature: 25.0°C (77°F)
Dewpoint: 19.0°C (66°F) [RH = 69%]
Pressure (altimeter): 30.06 inches Hg (1018.0 mb)
Winds: from the SE (140 degrees) at 13 MPH (11 knots; 5.7 m/s)
Visibility: 6 or more miles (10+ km)
Ceiling: 3400 feet AGL
Clouds: scattered clouds at 2000 feet AGL
broken clouds at 3400 feet AGL
Weather: no significant weather observed at this time

METAR text: YSNF 200230Z AUTO 15011KT 9999 // SCT020 BKN030 24/18 Q1018
Conditions at: YSNF (NORFOLK ISLAND A, AU) observed 0230 UTC 20 January 2019
Temperature: 24.0°C (75°F)
Dewpoint: 18.0°C (64°F) [RH = 69%]
Pressure (altimeter): 30.06 inches Hg (1018.0 mb)
Winds: from the SSE (150 degrees) at 13 MPH (11 knots; 5.7 m/s)
Visibility: 6 or more miles (10+ km)
Ceiling: 3000 feet AGL
Clouds: scattered clouds at 2000 feet AGL
broken clouds at 3000 feet AGL
Weather: no significant weather observed at this time

METAR text: YSNF 200200Z AUTO 15011KT 9999 // SCT026 26/18 Q1018 RF00.0/000.0
Conditions at: YSNF (NORFOLK ISLAND A, AU) observed 0200 UTC 20 January 2019
Temperature: 26.0°C (79°F)
Dewpoint: 18.0°C (64°F) [RH = 61%]
Pressure (altimeter): 30.06 inches Hg (1018.0 mb)
Winds: from the SSE (150 degrees) at 13 MPH (11 knots; 5.7 m/s)
Visibility: 6 or more miles (10+ km)
Ceiling: at least 12,000 feet AGL
Clouds: scattered clouds at 2600 feet AGL
Weather: no significant weather observed at this time

METAR text: YSNF 200130Z AUTO 13010KT 9999 // BKN026 25/18 Q1018 RF00.0/000.0
Conditions at: YSNF (NORFOLK ISLAND A, AU) observed 0130 UTC 20 January 2019
Temperature: 25.0°C (77°F)
Dewpoint: 18.0°C (64°F) [RH = 65%]
Pressure (altimeter): 30.06 inches Hg (1018.0 mb)
Winds: from the SE (130 degrees) at 12 MPH (10 knots; 5.1 m/s)
Visibility: 6 or more miles (10+ km)
Ceiling: 2600 feet AGL
Clouds: broken clouds at 2600 feet AGL
Weather: no significant weather observed at this time

METAR text: YSNF 200100Z AUTO 14010KT 9999 // SCT030 25/18 Q1018 RF00.0/000.0
Conditions at: YSNF (NORFOLK ISLAND A, AU) observed 0100 UTC 20 January 2019
Temperature: 25.0°C (77°F)
Dewpoint: 18.0°C (64°F) [RH = 65%]
Pressure (altimeter): 30.06 inches Hg (1018.0 mb)
Winds: from the SE (140 degrees) at 12 MPH (10 knots; 5.1 m/s)
Visibility: 6 or more miles (10+ km)
Ceiling: at least 12,000 feet AGL
Clouds: scattered clouds at 3000 feet AGL
Weather: no significant weather observed at this time

METAR text: YSNF 200030Z AUTO 10010KT 9999 // SCT034 26/18 Q1018 RF00.0/000.0
Conditions at: YSNF (NORFOLK ISLAND A, AU) observed 0030 UTC 20 January 2019
Temperature: 26.0°C (79°F)
Dewpoint: 18.0°C (64°F) [RH = 61%]
Pressure (altimeter): 30.06 inches Hg (1018.0 mb)
Winds: from the E (100 degrees) at 12 MPH (10 knots; 5.1 m/s)
Visibility: 6 or more miles (10+ km)
Ceiling: at least 12,000 feet AGL
Clouds: scattered clouds at 3400 feet AGL
Weather: no significant weather observed at this time

METAR text: YSNF 200000Z AUTO 11008KT 9999 // BKN032 BKN037 25/18 Q1018
Conditions at: YSNF (NORFOLK ISLAND A, AU) observed 0000 UTC 20 January 2019
Temperature: 25.0°C (77°F)
Dewpoint: 18.0°C (64°F) [RH = 65%]
Pressure (altimeter): 30.06 inches Hg (1018.0 mb)
Winds: from the ESE (110 degrees) at 9 MPH (8 knots; 4.1 m/s)
Visibility: 6 or more miles (10+ km)
Ceiling: 3200 feet AGL
Clouds: broken clouds at 3200 feet AGL
broken clouds at 3700 feet AGL
Weather: no significant weather observed at this time

METAR text: YSNF 192330Z AUTO 11007KT 9999 // BKN032 25/17 Q1018 RF00.0/000.0
Conditions at: YSNF (NORFOLK ISLAND A, AU) observed 2330 UTC 19 January 2019
Temperature: 25.0°C (77°F)
Dewpoint: 17.0°C (63°F) [RH = 61%]
Pressure (altimeter): 30.06 inches Hg (1018.0 mb)
Winds: from the ESE (110 degrees) at 8 MPH (7 knots; 3.6 m/s)
Visibility: 6 or more miles (10+ km)
Ceiling: 3200 feet AGL
Clouds: broken clouds at 3200 feet AGL
Weather: no significant weather observed at this time

METAR text: YSNF 192300Z AUTO 11008KT 090V150 9999 // SCT028 25/17 Q1018
Conditions at: YSNF (NORFOLK ISLAND A, AU) observed 2300 UTC 19 January 2019
Temperature: 25.0°C (77°F)
Dewpoint: 17.0°C (63°F) [RH = 61%]
Pressure (altimeter): 30.06 inches Hg (1018.0 mb)
Winds: from the ESE (110 degrees) at 9 MPH (8 knots; 4.1 m/s)
Visibility: 6 or more miles (10+ km)
Ceiling: at least 12,000 feet AGL
Clouds: scattered clouds at 2800 feet AGL
Weather: no significant weather observed at this time

METAR text: YSNF 192230Z AUTO 09009KT 9999 // SCT028 25/16 Q1018 RF00.0/000.0
Conditions at: YSNF (NORFOLK ISLAND A, AU) observed 2230 UTC 19 January 2019
Temperature: 25.0°C (77°F)
Dewpoint: 16.0°C (61°F) [RH = 57%]
Pressure (altimeter): 30.06 inches Hg (1018.0 mb)
Winds: from the E (90 degrees) at 10 MPH (9 knots; 4.6 m/s)
Visibility: 6 or more miles (10+ km)
Ceiling: at least 12,000 feet AGL
Clouds: scattered clouds at 2800 feet AGL
Weather: no significant weather observed at this time

METAR text: YSNF 192200Z AUTO 10009KT 9999 // BKN021 BKN024 OVC036 24/18 Q1018
Conditions at: YSNF (NORFOLK ISLAND A, AU) observed 2200 UTC 19 January 2019
Temperature: 24.0°C (75°F)
Dewpoint: 18.0°C (64°F) [RH = 69%]
Pressure (altimeter): 30.06 inches Hg (1018.0 mb)
Winds: from the E (100 degrees) at 10 MPH (9 knots; 4.6 m/s)
Visibility: 6 or more miles (10+ km)
Ceiling: 2100 feet AGL
Clouds: broken clouds at 2100 feet AGL
broken clouds at 2400 feet AGL
overcast cloud deck at 3600 feet AGL
Weather: no significant weather observed at this time

METAR text: YSNF 192130Z AUTO 11008KT 9999 // SCT021 BKN036 23/17 Q1018
Conditions at: YSNF (NORFOLK ISLAND A, AU) observed 2130 UTC 19 January 2019
Temperature: 23.0°C (73°F)
Dewpoint: 17.0°C (63°F) [RH = 69%]
Pressure (altimeter): 30.06 inches Hg (1018.0 mb)
Winds: from the ESE (110 degrees) at 9 MPH (8 knots; 4.1 m/s)
Visibility: 6 or more miles (10+ km)
Ceiling: 3600 feet AGL
Clouds: scattered clouds at 2100 feet AGL
broken clouds at 3600 feet AGL
Weather: no significant weather observed at this time

METAR text: YSNF 192100Z AUTO 13008KT 9999 // SCT023 23/18 Q1018
Conditions at: YSNF (NORFOLK ISLAND A, AU) observed 2100 UTC 19 January 2019
Temperature: 23.0°C (73°F)
Dewpoint: 18.0°C (64°F) [RH = 73%]
Pressure (altimeter): 30.06 inches Hg (1018.0 mb)
Winds: from the SE (130 degrees) at 9 MPH (8 knots; 4.1 m/s)
Visibility: 6 or more miles (10+ km)
Ceiling: at least 12,000 feet AGL
Clouds: scattered clouds at 2300 feet AGL
Weather: no significant weather observed at this time

METAR text: YSNF 192030Z AUTO 13008KT 9999 // SCT034 23/18 Q1018 RF00.0/000.0
Conditions at: YSNF (NORFOLK ISLAND A, AU) observed 2030 UTC 19 January 2019
Temperature: 23.0°C (73°F)
Dewpoint: 18.0°C (64°F) [RH = 73%]
Pressure (altimeter): 30.06 inches Hg (1018.0 mb)
Winds: from the SE (130 degrees) at 9 MPH (8 knots; 4.1 m/s)
Visibility: 6 or more miles (10+ km)
Ceiling: at least 12,000 feet AGL
Clouds: scattered clouds at 3400 feet AGL
Weather: no significant weather observed at this time

METAR text: YSNF 192000Z AUTO 12007KT 9999 // SCT019 23/18 Q1018 RF00.0/000.0
Conditions at: YSNF (NORFOLK ISLAND A, AU) observed 2000 UTC 19 January 2019
Temperature: 23.0°C (73°F)
Dewpoint: 18.0°C (64°F) [RH = 73%]
Pressure (altimeter): 30.06 inches Hg (1018.0 mb)
Winds: from the ESE (120 degrees) at 8 MPH (7 knots; 3.6 m/s)
Visibility: 6 or more miles (10+ km)
Ceiling: at least 12,000 feet AGL
Clouds: scattered clouds at 1900 feet AGL
Weather: no significant weather observed at this time

METAR text: YSNF 191930Z AUTO 12007KT 9999 // SCT034 22/18 Q1018 RF00.0/000.0
Conditions at: YSNF (NORFOLK ISLAND A, AU) observed 1930 UTC 19 January 2019
Temperature: 22.0°C (72°F)
Dewpoint: 18.0°C (64°F) [RH = 78%]
Pressure (altimeter): 30.06 inches Hg (1018.0 mb)
Winds: from the ESE (120 degrees) at 8 MPH (7 knots; 3.6 m/s)
Visibility: 6 or more miles (10+ km)
Ceiling: at least 12,000 feet AGL
Clouds: scattered clouds at 3400 feet AGL
Weather: no significant weather observed at this time

METAR text: YSNF 191900Z AUTO 11004KT 9999 // BKN017 21/18 Q1018 RF00.0/000.0
Conditions at: YSNF (NORFOLK ISLAND A, AU) observed 1900 UTC 19 January 2019
Temperature: 21.0°C (70°F)
Dewpoint: 18.0°C (64°F) [RH = 83%]
Pressure (altimeter): 30.06 inches Hg (1018.0 mb)
Winds: from the ESE (110 degrees) at 5 MPH (4 knots; 2.1 m/s)
Visibility: 6 or more miles (10+ km)
Ceiling: 1700 feet AGL
Clouds: broken clouds at 1700 feet AGL
Weather: no significant weather observed at this time

METAR text: YSNF 191830Z AUTO 08005KT 9999 // BKN032 20/17 Q1017 RF00.0/000.0
Conditions at: YSNF (NORFOLK ISLAND A, AU) observed 1830 UTC 19 January 2019
Temperature: 20.0°C (68°F)
Dewpoint: 17.0°C (63°F) [RH = 83%]
Pressure (altimeter): 30.03 inches Hg (1017.0 mb)
Winds: from the E (80 degrees) at 6 MPH (5 knots; 2.6 m/s)
Visibility: 6 or more miles (10+ km)
Ceiling: 3200 feet AGL
Clouds: broken clouds at 3200 feet AGL
Weather: no significant weather observed at this time

METAR text: YSNF 191800Z AUTO 09005KT 9999 // SCT030 20/17 Q1017
Conditions at: YSNF (NORFOLK ISLAND A, AU) observed 1800 UTC 19 January 2019
Temperature: 20.0°C (68°F)
Dewpoint: 17.0°C (63°F) [RH = 83%]
Pressure (altimeter): 30.03 inches Hg (1017.0 mb)
Winds: from the E (90 degrees) at 6 MPH (5 knots; 2.6 m/s)
Visibility: 6 or more miles (10+ km)
Ceiling: at least 12,000 feet AGL
Clouds: scattered clouds at 3000 feet AGL
Weather: no significant weather observed at this time

METAR text: YSNF 191730Z AUTO 09006KT 9999 // SCT020 BKN026 OVC031 21/18 Q1017
Conditions at: YSNF (NORFOLK ISLAND A, AU) observed 1730 UTC 19 January 2019
Temperature: 21.0°C (70°F)
Dewpoint: 18.0°C (64°F) [RH = 83%]
Pressure (altimeter): 30.03 inches Hg (1017.0 mb)
Winds: from the E (90 degrees) at 7 MPH (6 knots; 3.1 m/s)
Visibility: 6 or more miles (10+ km)
Ceiling: 2600 feet AGL
Clouds: scattered clouds at 2000 feet AGL
broken clouds at 2600 feet AGL
overcast cloud deck at 3100 feet AGL
Weather: no significant weather observed at this time

METAR text: YSNF 191700Z AUTO 12005KT 9999 // SCT016 SCT025 BKN031 21/18 Q1017
Conditions at: YSNF (NORFOLK ISLAND A, AU) observed 1700 UTC 19 January 2019
Temperature: 21.0°C (70°F)
Dewpoint: 18.0°C (64°F) [RH = 83%]
Pressure (altimeter): 30.03 inches Hg (1017.0 mb)
Winds: from the ESE (120 degrees) at 6 MPH (5 knots; 2.6 m/s)
Visibility: 6 or more miles (10+ km)
Ceiling: 3100 feet AGL
Clouds: scattered clouds at 1600 feet AGL
scattered clouds at 2500 feet AGL
broken clouds at 3100 feet AGL
Weather: no significant weather observed at this time

METAR text: YSNF 191630Z AUTO 10006KT 9999 // BKN029 21/18 Q1016 RF00.0/000.0
Conditions at: YSNF (NORFOLK ISLAND A, AU) observed 1630 UTC 19 January 2019
Temperature: 21.0°C (70°F)
Dewpoint: 18.0°C (64°F) [RH = 83%]
Pressure (altimeter): 30.00 inches Hg (1016.0 mb)
Winds: from the E (100 degrees) at 7 MPH (6 knots; 3.1 m/s)
Visibility: 6 or more miles (10+ km)
Ceiling: 2900 feet AGL
Clouds: broken clouds at 2900 feet AGL
Weather: no significant weather observed at this time

METAR text: YSNF 191600Z AUTO 09006KT 9999 // OVC027 21/18 Q1017 RF00.0/000.0
Conditions at: YSNF (NORFOLK ISLAND A, AU) observed 1600 UTC 19 January 2019
Temperature: 21.0°C (70°F)
Dewpoint: 18.0°C (64°F) [RH = 83%]
Pressure (altimeter): 30.03 inches Hg (1017.0 mb)
Winds: from the E (90 degrees) at 7 MPH (6 knots; 3.1 m/s)
Visibility: 6 or more miles (10+ km)
Ceiling: 2700 feet AGL
Clouds: overcast cloud deck at 2700 feet AGL
Weather: no significant weather observed at this time

METAR text: YSNF 191530Z AUTO 09005KT 9999 // OVC029 21/18 Q1016 RF00.0/000.0
Conditions at: YSNF (NORFOLK ISLAND A, AU) observed 1530 UTC 19 January 2019
Temperature: 21.0°C (70°F)
Dewpoint: 18.0°C (64°F) [RH = 83%]
Pressure (altimeter): 30.00 inches Hg (1016.0 mb)
Winds: from the E (90 degrees) at 6 MPH (5 knots; 2.6 m/s)
Visibility: 6 or more miles (10+ km)
Ceiling: 2900 feet AGL
Clouds: overcast cloud deck at 2900 feet AGL
Weather: no significant weather observed at this time

METAR text: YSNF 191500Z AUTO 10007KT 9999 // SCT017 SCT029 21/18 Q1017
Conditions at: YSNF (NORFOLK ISLAND A, AU) observed 1500 UTC 19 January 2019
Temperature: 21.0°C (70°F)
Dewpoint: 18.0°C (64°F) [RH = 83%]
Pressure (altimeter): 30.03 inches Hg (1017.0 mb)
Winds: from the E (100 degrees) at 8 MPH (7 knots; 3.6 m/s)
Visibility: 6 or more miles (10+ km)
Ceiling: at least 12,000 feet AGL
Clouds: scattered clouds at 1700 feet AGL
scattered clouds at 2900 feet AGL
Weather: no significant weather observed at this time

METAR text: YSNF 191430Z AUTO 11007KT 9999 // SCT019 BKN027 21/18 Q1017
Conditions at: YSNF (NORFOLK ISLAND A, AU) observed 1430 UTC 19 January 2019
Temperature: 21.0°C (70°F)
Dewpoint: 18.0°C (64°F) [RH = 83%]
Pressure (altimeter): 30.03 inches Hg (1017.0 mb)
Winds: from the ESE (110 degrees) at 8 MPH (7 knots; 3.6 m/s)
Visibility: 6 or more miles (10+ km)
Ceiling: 2700 feet AGL
Clouds: scattered clouds at 1900 feet AGL
broken clouds at 2700 feet AGL
Weather: no significant weather observed at this time

METAR text: YSNF 191400Z AUTO 13004KT 9999 // BKN023 21/18 Q1017 RF00.0/000.0
Conditions at: YSNF (NORFOLK ISLAND A, AU) observed 1400 UTC 19 January 2019
Temperature: 21.0°C (70°F)
Dewpoint: 18.0°C (64°F) [RH = 83%]
Pressure (altimeter): 30.03 inches Hg (1017.0 mb)
Winds: from the SE (130 degrees) at 5 MPH (4 knots; 2.1 m/s)
Visibility: 6 or more miles (10+ km)
Ceiling: 2300 feet AGL
Clouds: broken clouds at 2300 feet AGL
Weather: no significant weather observed at this time

METAR text: YSNF 191330Z AUTO 08007KT 9999 // NCD 20/17 Q1017 RF00.0/000.0
Conditions at: YSNF (NORFOLK ISLAND A, AU) observed 1330 UTC 19 January 2019
Temperature: 20.0°C (68°F)
Dewpoint: 17.0°C (63°F) [RH = 83%]
Pressure (altimeter): 30.03 inches Hg (1017.0 mb)
Winds: from the E (80 degrees) at 8 MPH (7 knots; 3.6 m/s)
Visibility: 6 or more miles (10+ km)
Ceiling: at least 12,000 feet AGL
Clouds: sky clear below 12,000 feet AGL
Weather: no significant weather observed at this time

METAR text: YSNF 191300Z AUTO 08006KT 9999 // SCT026 20/17 Q1017 RF00.0/000.0
Conditions at: YSNF (NORFOLK ISLAND A, AU) observed 1300 UTC 19 January 2019
Temperature: 20.0°C (68°F)
Dewpoint: 17.0°C (63°F) [RH = 83%]
Pressure (altimeter): 30.03 inches Hg (1017.0 mb)
Winds: from the E (80 degrees) at 7 MPH (6 knots; 3.1 m/s)
Visibility: 6 or more miles (10+ km)
Ceiling: at least 12,000 feet AGL
Clouds: scattered clouds at 2600 feet AGL
Weather: no significant weather observed at this time

METAR text: YSNF 191230Z AUTO 11006KT 9999 // SCT021 OVC026 21/17 Q1018
Conditions at: YSNF (NORFOLK ISLAND A, AU) observed 1230 UTC 19 January 2019
Temperature: 21.0°C (70°F)
Dewpoint: 17.0°C (63°F) [RH = 78%]
Pressure (altimeter): 30.06 inches Hg (1018.0 mb)
Winds: from the ESE (110 degrees) at 7 MPH (6 knots; 3.1 m/s)
Visibility: 6 or more miles (10+ km)
Ceiling: 2600 feet AGL
Clouds: scattered clouds at 2100 feet AGL
overcast cloud deck at 2600 feet AGL
Weather: no significant weather observed at this time

METAR text: YSNF 191200Z AUTO 11006KT 9999 // BKN024 21/17 Q1018 RF00.0/000.0
Conditions at: YSNF (NORFOLK ISLAND A, AU) observed 1200 UTC 19 January 2019
Temperature: 21.0°C (70°F)
Dewpoint: 17.0°C (63°F) [RH = 78%]
Pressure (altimeter): 30.06 inches Hg (1018.0 mb)
Winds: from the ESE (110 degrees) at 7 MPH (6 knots; 3.1 m/s)
Visibility: 6 or more miles (10+ km)
Ceiling: 2400 feet AGL
Clouds: broken clouds at 2400 feet AGL
Weather: no significant weather observed at this time

Forecast for: YSNF (NORFOLK ISLAND A, AU)
Text: TAF YSNF 202327Z 2100/2124 15005KT 9999 SCT010 SCT020
Forecast period: 0000 to 0800 UTC 21 January 2019
Forecast type: FROM: standard forecast or significant change
Winds: from the SSE (150 degrees) at 6 MPH (5 knots; 2.6 m/s)
Visibility: 6 or more miles 10+ km)
Ceiling: at least 12,000 feet AGL
Clouds: scattered clouds at 1000 feet AGL
scattered clouds at 2000 feet AGL
Weather: no significant weather forecast for this period
Text: FM210800 14005KT 9999 -SHRA SCT010 BKN020
Forecast period: 0800 UTC 21 January 2019 to 0000 UTC 22 January 2019
Forecast type: FROM: standard forecast or significant change
Winds: from the SE (140 degrees) at 6 MPH (5 knots; 2.6 m/s)
Visibility: 6 or more miles 10+ km)
Ceiling: 2000 feet AGL
Clouds: scattered clouds at 1000 feet AGL
broken clouds at 2000 feet AGL
Weather: -SHRA  (light rain showers)
Text: TEMPO 2110/2124 5000 SHRA SCT005 BKN010
Forecast period: 1000 UTC 21 January 2019 to 0000 UTC 22 January 2019
Forecast type: TEMPORARY: The following changes expected for less than half the time period
Visibility: 3 miles (5 km)
Ceiling: 1000 feet AGL
Clouds: scattered clouds at 500 feet AGL
broken clouds at 1000 feet AGL
Weather: SHRA  (rain showers)